sensor_id;sensor_type;location;lat;lon;timestamp;pressure;altitude;pressure_sealevel;temperature;humidity
28606;BME280;46498;49.968;7.754;2022-12-31T00:00:11;96468.00;;;10.87;100.00
28606;BME280;46498;49.968;7.754;2022-12-31T00:05:12;96476.00;;;10.87;100.00
28606;BME280;46498;49.968;7.754;2022-12-31T00:10:14;96480.00;;;10.90;100.00
28606;BME280;46498;49.968;7.754;2022-12-31T00:15:15;96487.00;;;10.89;100.00
28606;BME280;46498;49.968;7.754;2022-12-31T00:20:16;96475.00;;;10.97;100.00
28606;BME280;46498;49.968;7.754;2022-12-31T00:25:17;96489.00;;;10.94;100.00
28606;BME280;46498;49.968;7.754;2022-12-31T00:30:18;96495.00;;;11.01;100.00
28606;BME280;46498;49.968;7.754;2022-12-31T00:35:18;96501.00;;;10.98;100.00
28606;BME280;46498;49.968;7.754;2022-12-31T00:40:19;96502.00;;;11.06;100.00
28606;BME280;46498;49.968;7.754;2022-12-31T00:45:20;96508.00;;;10.99;100.00
28606;BME280;46498;49.968;7.754;2022-12-31T00:50:21;96502.00;;;11.02;100.00
28606;BME280;46498;49.968;7.754;2022-12-31T00:55:22;96504.00;;;11.02;100.00
28606;BME280;46498;49.968;7.754;2022-12-31T01:00:23;96511.00;;;10.96;100.00
28606;BME280;46498;49.968;7.754;2022-12-31T01:05:24;96518.00;;;10.98;100.00
28606;BME280;46498;49.968;7.754;2022-12-31T01:10:25;96521.00;;;11.04;100.00
28606;BME280;46498;49.968;7.754;2022-12-31T01:15:44;96529.00;;;11.06;100.00
28606;BME280;46498;49.968;7.754;2022-12-31T01:20:45;96532.00;;;10.99;100.00
28606;BME280;46498;49.968;7.754;2022-12-31T01:25:46;96545.00;;;11.02;100.00
28606;BME280;46498;49.968;7.754;2022-12-31T01:30:47;96544.00;;;10.99;100.00
28606;BME280;46498;49.968;7.754;2022-12-31T01:35:47;96556.00;;;11.04;100.00
28606;BME280;46498;49.968;7.754;2022-12-31T01:40:48;96561.00;;;11.12;100.00
28606;BME280;46498;49.968;7.754;2022-12-31T01:45:52;96565.00;;;11.11;100.00
28606;BME280;46498;49.968;7.754;2022-12-31T01:50:53;96582.00;;;11.17;100.00
28606;BME280;46498;49.968;7.754;2022-12-31T01:55:57;96567.00;;;11.21;100.00
28606;BME280;46498;49.968;7.754;2022-12-31T02:00:59;96570.00;;;11.30;100.00
28606;BME280;46498;49.968;7.754;2022-12-31T02:06:06;96567.00;;;11.38;100.00
28606;BME280;46498;49.968;7.754;2022-12-31T02:11:27;96579.00;;;11.35;100.00
28606;BME280;46498;49.968;7.754;2022-12-31T02:16:59;96578.00;;;11.41;100.00
28606;BME280;46498;49.968;7.754;2022-12-31T02:33:21;96571.00;;;11.43;100.00
28606;BME280;46498;49.968;7.754;2022-12-31T02:38:28;96587.00;;;11.50;100.00
28606;BME280;46498;49.968;7.754;2022-12-31T02:43:31;96579.00;;;11.59;100.00
28606;BME280;46498;49.968;7.754;2022-12-31T02:50:26;96587.00;;;11.57;100.00
28606;BME280;46498;49.968;7.754;2022-12-31T02:55:39;96580.00;;;11.51;100.00
28606;BME280;46498;49.968;7.754;2022-12-31T03:00:49;96591.00;;;11.48;100.00
28606;BME280;46498;49.968;7.754;2022-12-31T03:06:10;96578.00;;;11.48;100.00
28606;BME280;46498;49.968;7.754;2022-12-31T03:11:11;96580.00;;;11.53;100.00
28606;BME280;46498;49.968;7.754;2022-12-31T03:18:46;96583.00;;;11.48;100.00
28606;BME280;46498;49.968;7.754;2022-12-31T03:25:17;96587.00;;;11.49;100.00
28606;BME280;46498;49.968;7.754;2022-12-31T03:30:39;96582.00;;;11.47;100.00
28606;BME280;46498;49.968;7.754;2022-12-31T03:35:42;96595.00;;;11.47;100.00
28606;BME280;46498;49.968;7.754;2022-12-31T03:40:46;96602.00;;;11.53;100.00
28606;BME280;46498;49.968;7.754;2022-12-31T03:45:49;96602.00;;;11.51;100.00
28606;BME280;46498;49.968;7.754;2022-12-31T03:50:53;96602.00;;;11.58;100.00
28606;BME280;46498;49.968;7.754;2022-12-31T03:55:54;96599.00;;;11.63;100.00
28606;BME280;46498;49.968;7.754;2022-12-31T04:00:55;96592.00;;;11.62;100.00
28606;BME280;46498;49.968;7.754;2022-12-31T04:05:56;96611.00;;;11.66;100.00
28606;BME280;46498;49.968;7.754;2022-12-31T04:10:57;96625.00;;;11.57;100.00
28606;BME280;46498;49.968;7.754;2022-12-31T04:15:58;96621.00;;;11.58;100.00
28606;BME280;46498;49.968;7.754;2022-12-31T04:21:03;96617.00;;;11.59;100.00
28606;BME280;46498;49.968;7.754;2022-12-31T04:26:04;96611.00;;;11.69;100.00
28606;BME280;46498;49.968;7.754;2022-12-31T04:31:05;96625.00;;;11.75;100.00
28606;BME280;46498;49.968;7.754;2022-12-31T04:36:07;96628.00;;;11.80;100.00
28606;BME280;46498;49.968;7.754;2022-12-31T04:41:08;96626.00;;;11.79;100.00
28606;BME280;46498;49.968;7.754;2022-12-31T04:46:20;96636.00;;;11.91;100.00
28606;BME280;46498;49.968;7.754;2022-12-31T04:51:22;96649.00;;;11.83;100.00
28606;BME280;46498;49.968;7.754;2022-12-31T04:56:24;96648.00;;;11.90;100.00
28606;BME280;46498;49.968;7.754;2022-12-31T05:01:25;96658.00;;;11.92;100.00
28606;BME280;46498;49.968;7.754;2022-12-31T05:06:26;96661.00;;;11.95;100.00
28606;BME280;46498;49.968;7.754;2022-12-31T05:11:26;96665.00;;;12.01;100.00
28606;BME280;46498;49.968;7.754;2022-12-31T05:16:27;96660.00;;;12.15;100.00
28606;BME280;46498;49.968;7.754;2022-12-31T05:21:28;96665.00;;;12.20;100.00
28606;BME280;46498;49.968;7.754;2022-12-31T05:26:29;96660.00;;;12.26;100.00
28606;BME280;46498;49.968;7.754;2022-12-31T05:31:30;96664.00;;;12.27;100.00
28606;BME280;46498;49.968;7.754;2022-12-31T05:36:31;96665.00;;;12.36;100.00
28606;BME280;46498;49.968;7.754;2022-12-31T05:41:31;96679.00;;;12.36;100.00
28606;BME280;46498;49.968;7.754;2022-12-31T05:46:32;96675.00;;;12.36;100.00
28606;BME280;46498;49.968;7.754;2022-12-31T05:51:33;96684.00;;;12.38;100.00
28606;BME280;46498;49.968;7.754;2022-12-31T05:56:34;96683.00;;;12.44;100.00
28606;BME280;46498;49.968;7.754;2022-12-31T06:01:35;96696.00;;;12.47;100.00
28606;BME280;46498;49.968;7.754;2022-12-31T06:06:36;96696.00;;;12.54;100.00
28606;BME280;46498;49.968;7.754;2022-12-31T06:11:37;96707.00;;;12.54;100.00
28606;BME280;46498;49.968;7.754;2022-12-31T06:16:39;96701.00;;;12.60;100.00
28606;BME280;46498;49.968;7.754;2022-12-31T06:21:40;96714.00;;;12.59;100.00
28606;BME280;46498;49.968;7.754;2022-12-31T06:26:41;96721.00;;;12.71;100.00
28606;BME280;46498;49.968;7.754;2022-12-31T06:31:41;96732.00;;;12.74;100.00
28606;BME280;46498;49.968;7.754;2022-12-31T06:36:42;96732.00;;;12.70;100.00
28606;BME280;46498;49.968;7.754;2022-12-31T06:41:43;96748.00;;;12.79;100.00
28606;BME280;46498;49.968;7.754;2022-12-31T06:46:44;96749.00;;;12.76;100.00
28606;BME280;46498;49.968;7.754;2022-12-31T06:51:45;96747.00;;;12.80;100.00
28606;BME280;46498;49.968;7.754;2022-12-31T06:56:48;96741.00;;;12.85;100.00
28606;BME280;46498;49.968;7.754;2022-12-31T07:03:32;96747.00;;;12.84;100.00
28606;BME280;46498;49.968;7.754;2022-12-31T07:08:54;96756.00;;;12.80;100.00
28606;BME280;46498;49.968;7.754;2022-12-31T07:14:28;96758.00;;;12.91;100.00
28606;BME280;46498;49.968;7.754;2022-12-31T07:21:29;96754.00;;;12.92;100.00
28606;BME280;46498;49.968;7.754;2022-12-31T07:28:04;96762.00;;;12.84;100.00
28606;BME280;46498;49.968;7.754;2022-12-31T07:33:58;96785.00;;;12.89;100.00
28606;BME280;46498;49.968;7.754;2022-12-31T07:39:10;96792.00;;;12.86;100.00
28606;BME280;46498;49.968;7.754;2022-12-31T07:44:31;96784.00;;;12.81;100.00
28606;BME280;46498;49.968;7.754;2022-12-31T07:49:36;96794.00;;;12.84;100.00
28606;BME280;46498;49.968;7.754;2022-12-31T07:54:38;96811.00;;;12.74;100.00
28606;BME280;46498;49.968;7.754;2022-12-31T08:00:21;96813.00;;;12.75;100.00
28606;BME280;46498;49.968;7.754;2022-12-31T08:05:51;96813.00;;;12.78;100.00
28606;BME280;46498;49.968;7.754;2022-12-31T08:11:16;96818.00;;;12.77;100.00
28606;BME280;46498;49.968;7.754;2022-12-31T08:16:21;96807.00;;;12.77;100.00
28606;BME280;46498;49.968;7.754;2022-12-31T08:23:23;96823.00;;;12.83;100.00
28606;BME280;46498;49.968;7.754;2022-12-31T08:29:31;96813.00;;;12.79;100.00
28606;BME280;46498;49.968;7.754;2022-12-31T08:34:43;96820.00;;;12.83;100.00
28606;BME280;46498;49.968;7.754;2022-12-31T08:40:03;96823.00;;;12.85;100.00
28606;BME280;46498;49.968;7.754;2022-12-31T08:45:19;96829.00;;;12.78;100.00
28606;BME280;46498;49.968;7.754;2022-12-31T08:50:24;96840.00;;;12.78;100.00
28606;BME280;46498;49.968;7.754;2022-12-31T08:55:26;96852.00;;;12.79;100.00
28606;BME280;46498;49.968;7.754;2022-12-31T09:00:28;96860.00;;;12.86;100.00
28606;BME280;46498;49.968;7.754;2022-12-31T09:05:57;96858.00;;;12.97;100.00
28606;BME280;46498;49.968;7.754;2022-12-31T09:14:30;96862.00;;;12.98;100.00
28606;BME280;46498;49.968;7.754;2022-12-31T09:19:36;96868.00;;;13.03;100.00
28606;BME280;46498;49.968;7.754;2022-12-31T09:24:37;96865.00;;;13.10;100.00
28606;BME280;46498;49.968;7.754;2022-12-31T09:30:02;96872.00;;;13.38;100.00
28606;BME280;46498;49.968;7.754;2022-12-31T09:35:53;96878.00;;;13.43;100.00
28606;BME280;46498;49.968;7.754;2022-12-31T09:41:09;96881.00;;;13.58;100.00
28606;BME280;46498;49.968;7.754;2022-12-31T09:59:05;96894.00;;;13.79;100.00
28606;BME280;46498;49.968;7.754;2022-12-31T10:16:48;96913.00;;;13.47;100.00
28606;BME280;46498;49.968;7.754;2022-12-31T10:23:50;96932.00;;;14.07;100.00
28606;BME280;46498;49.968;7.754;2022-12-31T10:29:39;96928.00;;;14.26;100.00
28606;BME280;46498;49.968;7.754;2022-12-31T10:41:52;96928.00;;;14.29;100.00
28606;BME280;46498;49.968;7.754;2022-12-31T10:56:48;96934.00;;;14.56;100.00
28606;BME280;46498;49.968;7.754;2022-12-31T11:11:41;96929.00;;;14.35;100.00
28606;BME280;46498;49.968;7.754;2022-12-31T11:17:36;96940.00;;;14.54;100.00
28606;BME280;46498;49.968;7.754;2022-12-31T11:24:46;96942.00;;;14.75;100.00
28606;BME280;46498;49.968;7.754;2022-12-31T11:41:48;96946.00;;;15.10;97.25
28606;BME280;46498;49.968;7.754;2022-12-31T11:47:14;96951.00;;;15.27;94.68
28606;BME280;46498;49.968;7.754;2022-12-31T11:59:08;96930.00;;;14.96;97.51
28606;BME280;46498;49.968;7.754;2022-12-31T12:04:19;96941.00;;;14.97;97.11
28606;BME280;46498;49.968;7.754;2022-12-31T12:09:26;96918.00;;;15.20;94.53
28606;BME280;46498;49.968;7.754;2022-12-31T12:14:34;96913.00;;;15.13;94.45
28606;BME280;46498;49.968;7.754;2022-12-31T12:19:42;96917.00;;;14.84;95.97
28606;BME280;46498;49.968;7.754;2022-12-31T12:24:55;96913.00;;;14.51;96.78
28606;BME280;46498;49.968;7.754;2022-12-31T12:29:56;96900.00;;;14.35;97.77
28606;BME280;46498;49.968;7.754;2022-12-31T12:34:58;96900.00;;;14.48;98.28
28606;BME280;46498;49.968;7.754;2022-12-31T12:40:02;96901.00;;;14.70;97.32
28606;BME280;46498;49.968;7.754;2022-12-31T12:45:09;96894.00;;;14.48;96.92
28606;BME280;46498;49.968;7.754;2022-12-31T12:50:19;96876.00;;;14.61;97.09
28606;BME280;46498;49.968;7.754;2022-12-31T12:55:50;96882.00;;;14.59;96.24
28606;BME280;46498;49.968;7.754;2022-12-31T13:01:44;96897.00;;;14.52;95.69
28606;BME280;46498;49.968;7.754;2022-12-31T13:20:52;96899.00;;;14.90;93.26
28606;BME280;46498;49.968;7.754;2022-12-31T13:28:33;96877.00;;;14.63;92.05
28606;BME280;46498;49.968;7.754;2022-12-31T13:33:39;96868.00;;;14.86;89.23
28606;BME280;46498;49.968;7.754;2022-12-31T13:38:51;96877.00;;;14.62;90.66
28606;BME280;46498;49.968;7.754;2022-12-31T13:44:24;96871.00;;;14.36;93.18
28606;BME280;46498;49.968;7.754;2022-12-31T13:49:45;96878.00;;;13.98;93.88
28606;BME280;46498;49.968;7.754;2022-12-31T13:54:55;96888.00;;;13.99;94.50
28606;BME280;46498;49.968;7.754;2022-12-31T14:00:01;96889.00;;;13.91;94.78
28606;BME280;46498;49.968;7.754;2022-12-31T14:06:01;96889.00;;;13.95;94.27
28606;BME280;46498;49.968;7.754;2022-12-31T14:11:22;96885.00;;;13.86;93.63
28606;BME280;46498;49.968;7.754;2022-12-31T14:23:59;96893.00;;;13.76;94.08
28606;BME280;46498;49.968;7.754;2022-12-31T14:29:44;96891.00;;;13.68;94.00
28606;BME280;46498;49.968;7.754;2022-12-31T14:34:57;96879.00;;;13.55;94.28
28606;BME280;46498;49.968;7.754;2022-12-31T14:40:39;96892.00;;;13.48;94.82
28606;BME280;46498;49.968;7.754;2022-12-31T14:49:01;96891.00;;;13.38;94.79
28606;BME280;46498;49.968;7.754;2022-12-31T14:54:24;96890.00;;;13.39;93.97
28606;BME280;46498;49.968;7.754;2022-12-31T14:59:30;96893.00;;;13.44;93.83
28606;BME280;46498;49.968;7.754;2022-12-31T15:04:44;96890.00;;;13.35;93.05
28606;BME280;46498;49.968;7.754;2022-12-31T15:09:58;96884.00;;;13.28;93.55
28606;BME280;46498;49.968;7.754;2022-12-31T15:15:21;96889.00;;;13.23;93.60
28606;BME280;46498;49.968;7.754;2022-12-31T15:22:03;96899.00;;;13.22;93.08
28606;BME280;46498;49.968;7.754;2022-12-31T15:27:33;96907.00;;;13.16;93.34
28606;BME280;46498;49.968;7.754;2022-12-31T15:32:38;96910.00;;;13.02;94.05
28606;BME280;46498;49.968;7.754;2022-12-31T15:37:40;96914.00;;;13.07;93.35
28606;BME280;46498;49.968;7.754;2022-12-31T15:42:51;96920.00;;;13.03;93.49
28606;BME280;46498;49.968;7.754;2022-12-31T15:47:57;96923.00;;;13.00;93.52
28606;BME280;46498;49.968;7.754;2022-12-31T15:53:00;96920.00;;;12.90;93.99
28606;BME280;46498;49.968;7.754;2022-12-31T15:58:10;96929.00;;;12.94;93.76
28606;BME280;46498;49.968;7.754;2022-12-31T16:03:23;96920.00;;;12.88;93.88
28606;BME280;46498;49.968;7.754;2022-12-31T16:08:28;96930.00;;;12.85;94.16
28606;BME280;46498;49.968;7.754;2022-12-31T16:13:31;96927.00;;;12.91;93.42
28606;BME280;46498;49.968;7.754;2022-12-31T16:18:42;96931.00;;;12.81;94.13
28606;BME280;46498;49.968;7.754;2022-12-31T16:23:49;96932.00;;;12.78;94.04
28606;BME280;46498;49.968;7.754;2022-12-31T16:28:50;96929.00;;;12.74;94.27
28606;BME280;46498;49.968;7.754;2022-12-31T16:33:51;96928.00;;;12.72;94.49
28606;BME280;46498;49.968;7.754;2022-12-31T18:47:23;96957.00;;;12.32;87.10
28606;BME280;46498;49.968;7.754;2022-12-31T18:52:24;96962.00;;;12.25;86.70
28606;BME280;46498;49.968;7.754;2022-12-31T18:57:25;96954.00;;;12.13;87.70
28606;BME280;46498;49.968;7.754;2022-12-31T19:02:26;96959.00;;;12.04;88.42
28606;BME280;46498;49.968;7.754;2022-12-31T19:07:27;96965.00;;;12.02;88.18
28606;BME280;46498;49.968;7.754;2022-12-31T19:12:28;96957.00;;;12.06;87.26
28606;BME280;46498;49.968;7.754;2022-12-31T19:17:28;96973.00;;;12.04;87.26
28606;BME280;46498;49.968;7.754;2022-12-31T19:22:29;96967.00;;;12.03;86.76
28606;BME280;46498;49.968;7.754;2022-12-31T19:27:30;96958.00;;;12.05;85.73
28606;BME280;46498;49.968;7.754;2022-12-31T19:32:31;96967.00;;;12.02;85.61
28606;BME280;46498;49.968;7.754;2022-12-31T19:37:32;96972.00;;;11.95;86.01
28606;BME280;46498;49.968;7.754;2022-12-31T19:42:32;96962.00;;;12.06;84.65
28606;BME280;46498;49.968;7.754;2022-12-31T19:47:33;96966.00;;;12.05;84.42
28606;BME280;46498;49.968;7.754;2022-12-31T19:52:34;96977.00;;;11.96;84.63
28606;BME280;46498;49.968;7.754;2022-12-31T19:57:37;96988.00;;;11.92;84.57
28606;BME280;46498;49.968;7.754;2022-12-31T20:02:40;96985.00;;;12.05;83.56
28606;BME280;46498;49.968;7.754;2022-12-31T20:07:41;96996.00;;;11.90;83.95
28606;BME280;46498;49.968;7.754;2022-12-31T20:12:42;96989.00;;;11.88;84.26
28606;BME280;46498;49.968;7.754;2022-12-31T20:17:45;96979.00;;;11.92;83.69
28606;BME280;46498;49.968;7.754;2022-12-31T20:22:46;96988.00;;;11.92;83.88
28606;BME280;46498;49.968;7.754;2022-12-31T20:27:47;96988.00;;;11.87;84.00
28606;BME280;46498;49.968;7.754;2022-12-31T20:32:48;96989.00;;;11.95;83.57
28606;BME280;46498;49.968;7.754;2022-12-31T20:37:51;96987.00;;;11.88;84.35
28606;BME280;46498;49.968;7.754;2022-12-31T20:42:52;96998.00;;;11.76;84.94
28606;BME280;46498;49.968;7.754;2022-12-31T20:47:52;96991.00;;;11.72;85.50
28606;BME280;46498;49.968;7.754;2022-12-31T20:52:53;97002.00;;;11.82;85.09
28606;BME280;46498;49.968;7.754;2022-12-31T20:57:54;97001.00;;;11.81;85.03
28606;BME280;46498;49.968;7.754;2022-12-31T21:02:55;97002.00;;;11.68;85.87
28606;BME280;46498;49.968;7.754;2022-12-31T21:08:11;96999.00;;;11.62;86.48
28606;BME280;46498;49.968;7.754;2022-12-31T21:13:11;97003.00;;;11.63;86.45
28606;BME280;46498;49.968;7.754;2022-12-31T21:18:12;97005.00;;;11.67;86.31
28606;BME280;46498;49.968;7.754;2022-12-31T21:23:14;97004.00;;;11.71;85.96
28606;BME280;46498;49.968;7.754;2022-12-31T21:28:15;97011.00;;;11.70;86.01
28606;BME280;46498;49.968;7.754;2022-12-31T21:33:16;97019.00;;;11.59;86.61
28606;BME280;46498;49.968;7.754;2022-12-31T21:38:17;97019.00;;;11.61;86.65
28606;BME280;46498;49.968;7.754;2022-12-31T21:43:18;97019.00;;;11.56;86.77
28606;BME280;46498;49.968;7.754;2022-12-31T21:48:19;97022.00;;;11.53;87.12
28606;BME280;46498;49.968;7.754;2022-12-31T21:53:22;97032.00;;;11.59;86.59
28606;BME280;46498;49.968;7.754;2022-12-31T21:58:29;97048.00;;;11.80;85.44
28606;BME280;46498;49.968;7.754;2022-12-31T22:03:30;97041.00;;;11.65;86.31
28606;BME280;46498;49.968;7.754;2022-12-31T22:08:32;97059.00;;;11.71;86.21
28606;BME280;46498;49.968;7.754;2022-12-31T22:13:33;97046.00;;;11.82;85.82
28606;BME280;46498;49.968;7.754;2022-12-31T22:18:36;97060.00;;;11.77;85.77
28606;BME280;46498;49.968;7.754;2022-12-31T22:23:40;97056.00;;;11.78;86.95
28606;BME280;46498;49.968;7.754;2022-12-31T22:28:43;97064.00;;;11.69;86.18
28606;BME280;46498;49.968;7.754;2022-12-31T22:33:45;97073.00;;;11.73;86.08
28606;BME280;46498;49.968;7.754;2022-12-31T22:38:46;97066.00;;;11.61;86.57
28606;BME280;46498;49.968;7.754;2022-12-31T22:43:50;97070.00;;;11.60;86.58
28606;BME280;46498;49.968;7.754;2022-12-31T22:49:02;97073.00;;;11.61;86.57
28606;BME280;46498;49.968;7.754;2022-12-31T22:54:03;97071.00;;;11.44;87.81
28606;BME280;46498;49.968;7.754;2022-12-31T22:59:04;97069.00;;;11.27;88.87
28606;BME280;46498;49.968;7.754;2022-12-31T23:04:05;97075.00;;;11.13;90.07
28606;BME280;46498;49.968;7.754;2022-12-31T23:09:06;97087.00;;;11.10;90.16
28606;BME280;46498;49.968;7.754;2022-12-31T23:14:26;97087.00;;;11.03;90.67
28606;BME280;46498;49.968;7.754;2022-12-31T23:19:45;97099.00;;;11.00;91.32
28606;BME280;46498;49.968;7.754;2022-12-31T23:25:04;97099.00;;;10.88;92.08
28606;BME280;46498;49.968;7.754;2022-12-31T23:30:06;97093.00;;;10.81;94.05
28606;BME280;46498;49.968;7.754;2022-12-31T23:35:07;97096.00;;;11.09;93.18
28606;BME280;46498;49.968;7.754;2022-12-31T23:40:10;97093.00;;;11.11;94.01
28606;BME280;46498;49.968;7.754;2022-12-31T23:45:19;97104.00;;;11.12;94.05
28606;BME280;46498;49.968;7.754;2022-12-31T23:50:20;97092.00;;;11.12;94.38
28606;BME280;46498;49.968;7.754;2022-12-31T23:55:21;97095.00;;;11.15;94.37
